Time;durP1;ratioP1;P1;durP2;ratioP2;P2;SDS_P1;SDS_P2;PMS_P1;PMS_P2;Temp;Humidity;BMP_temperature;BMP_pressure;BME280_temperature;BME280_humidity;BME280_pressure;Samples;Min_cycle;Max_cycle;Signal;HPM_P1;HPM_P2
2021/03/03 00:00:53;;;;;;;46.90;22.17;;;;;;;-0.33;86.37;102151.98;3592448;81;35542;-82
2021/03/03 00:05:54;;;;;;;46.37;22.35;;;;;;;-0.33;86.37;102151.98;3587864;81;98808;-83
2021/03/03 00:10:55;;;;;;;50.87;22.30;;;;;;;-0.27;86.96;102170.69;3591692;81;35520;-82
2021/03/03 00:15:56;;;;;;;51.27;22.97;;;;;;;-0.29;87.11;102158.50;3581294;81;98491;-82
2021/03/03 00:20:57;;;;;;;63.00;28.63;;;;;;;-0.32;87.43;102161.75;3553337;81;35000;-82
2021/03/03 00:25:58;;;;;;;61.97;25.43;;;;;;;-0.39;87.14;102161.15;3531590;81;98655;-82
2021/03/03 00:30:59;;;;;;;69.50;30.33;;;;;;;-0.43;87.33;102151.95;3556470;81;35090;-81
2021/03/03 00:36:00;;;;;;;69.77;27.13;;;;;;;-0.51;87.21;102156.48;3543086;81;98847;-82
2021/03/03 00:41:02;;;;;;;68.83;28.97;;;;;;;-0.52;87.37;102153.52;3544876;82;33262;-81
2021/03/03 00:46:03;;;;;;;71.83;32.97;;;;;;;-0.59;87.25;102143.48;3547383;81;99189;-81
2021/03/03 00:51:05;;;;;;;63.43;27.83;;;;;;;-0.62;87.55;102145.34;3545566;81;33801;-81
2021/03/03 00:56:06;;;;;;;60.55;27.40;;;;;;;-0.71;87.63;102146.89;3548994;82;98825;-81
2021/03/03 01:01:07;;;;;;;65.53;27.07;;;;;;;-0.71;87.63;102142.84;3554128;81;32684;-81
2021/03/03 01:06:08;;;;;;;57.77;22.57;;;;;;;-0.75;87.73;102145.80;3547006;81;98905;-82
2021/03/03 01:11:09;;;;;;;43.97;18.97;;;;;;;-0.88;87.78;102142.18;3559642;81;33142;-81
2021/03/03 01:16:10;;;;;;;46.45;20.50;;;;;;;-0.91;87.82;102134.61;3547855;81;98824;-81
2021/03/03 01:21:11;;;;;;;42.80;17.73;;;;;;;-0.85;87.80;102128.16;3550227;81;33772;-81
2021/03/03 01:26:13;;;;;;;39.77;19.00;;;;;;;-0.88;87.79;102125.17;3548502;81;98815;-81
2021/03/03 01:31:14;;;;;;;45.17;18.43;;;;;;;-0.94;87.67;102112.15;3557706;81;33697;-81
2021/03/03 01:36:16;;;;;;;47.47;20.77;;;;;;;-0.94;87.67;102112.15;3542025;80;99007;-81
2021/03/03 01:41:17;;;;;;;52.37;24.37;;;;;;;-0.97;87.60;102107.28;3551530;81;32644;-81
2021/03/03 01:46:18;;;;;;;45.83;22.37;;;;;;;-0.93;87.71;102096.76;3542016;82;98785;-81
2021/03/03 01:51:19;;;;;;;49.93;23.87;;;;;;;-1.00;87.75;102094.83;3551697;82;32630;-81
2021/03/03 01:56:20;;;;;;;46.97;20.67;;;;;;;-1.12;87.59;102106.34;3542702;81;98904;-81
2021/03/03 02:01:21;;;;;;;50.30;23.13;;;;;;;-1.19;87.71;102094.42;3549848;81;32683;-81
2021/03/03 02:06:43;;;;;;;43.30;19.63;;;;;;;-1.27;87.99;102089.48;3549469;81;98687;-81
2021/03/03 02:12:01;;;;;;;43.57;19.93;;;;;;;-1.30;87.97;102087.31;3549505;81;32730;-81
2021/03/03 02:17:03;;;;;;;42.80;18.90;;;;;;;-1.28;88.01;102086.51;3510646;81;98643;-80
2021/03/03 02:22:39;;;;;;;40.17;18.77;;;;;;;-1.32;87.95;102084.59;3528435;81;32669;-80
2021/03/03 02:27:39;;;;;;;43.13;19.57;;;;;;;-1.30;87.76;102082.44;3548442;81;98639;-80
2021/03/03 02:32:41;;;;;;;46.83;22.30;;;;;;;-1.31;87.83;102077.56;3521075;82;33041;-80
2021/03/03 02:37:43;;;;;;;45.70;20.30;;;;;;;-1.37;87.72;102068.34;3542165;81;98627;-80
2021/03/03 02:42:44;;;;;;;44.57;20.37;;;;;;;-1.37;87.68;102060.24;3551721;82;33660;-80
2021/03/03 02:47:50;;;;;;;52.37;23.33;;;;;;;-1.40;87.85;102058.05;3549625;81;98660;-80
2021/03/03 02:52:57;;;;;;;59.45;31.48;;;;;;;-1.45;87.69;102045.85;3554709;82;26187;-81
2021/03/03 02:58:01;;;;;;;59.17;27.73;;;;;;;-1.47;87.79;102051.53;3548686;81;98719;-80
2021/03/03 03:03:35;;;;;;;55.87;29.60;;;;;;;-1.55;87.65;102043.06;3549079;82;33225;-80
2021/03/03 03:08:40;;;;;;;56.47;28.00;;;;;;;-1.56;87.72;102042.27;3547347;81;32651;-79
2021/03/03 03:13:44;;;;;;;58.70;27.60;;;;;;;-1.57;87.82;102035.77;3544190;81;98591;-80
2021/03/03 03:18:50;;;;;;;67.73;30.90;;;;;;;-1.61;87.75;102026.03;3534808;81;33222;-80
2021/03/03 03:23:51;;;;;;;;;;;;;;;-1.65;87.68;102019.52;3554350;81;98723;-80
2021/03/03 03:28:52;;;;;;;63.87;30.37;;;;;;;-1.71;87.88;102029.20;3552227;82;33549;-80
2021/03/03 03:33:54;;;;;;;73.57;35.30;;;;;;;-1.74;87.84;102026.47;3527853;82;98663;-80
2021/03/03 03:38:55;;;;;;;66.17;31.23;;;;;;;-1.80;87.84;102033.42;3551811;81;32675;-80
2021/03/03 03:43:58;;;;;;;71.33;29.27;;;;;;;-1.82;88.03;102036.38;3541210;80;98993;-81
2021/03/03 03:49:00;;;;;;;66.70;31.43;;;;;;;-1.83;88.10;102025.30;3557369;82;32696;-80
2021/03/03 03:54:02;;;;;;;69.53;32.65;;;;;;;-1.80;88.17;102020.72;3525784;82;98877;-79
2021/03/03 03:59:04;;;;;;;74.03;35.53;;;;;;;-1.82;87.92;102010.73;3536394;82;34022;-80
2021/03/03 04:04:05;;;;;;;88.47;36.50;;;;;;;-1.77;87.83;102018.05;3520538;81;99099;-80
2021/03/03 04:09:06;;;;;;;71.83;31.80;;;;;;;-1.80;88.06;102020.72;3518471;83;33349;-81
2021/03/03 04:14:10;;;;;;;73.50;31.27;;;;;;;-1.85;87.89;102010.44;3550736;82;98519;-80
2021/03/03 04:19:10;;;;;;;65.93;30.40;;;;;;;-1.88;87.81;102005.54;3556954;81;32715;-80
2021/03/03 04:24:12;;;;;;;71.25;33.20;;;;;;;-1.90;87.95;102000.42;3550398;81;98721;-80
2021/03/03 04:29:13;;;;;;;67.30;32.37;;;;;;;-1.88;87.89;101992.05;3536997;82;33151;-80
2021/03/03 04:34:14;;;;;;;73.13;32.10;;;;;;;-1.86;88.02;101988.02;3519226;80;98603;-80
2021/03/03 04:39:15;;;;;;;66.77;33.27;;;;;;;-1.92;87.85;101990.95;3540061;82;32615;-81
2021/03/03 04:44:16;;;;;;;67.57;30.70;;;;;;;-1.93;87.81;101985.25;3546878;81;98886;-81
2021/03/03 04:49:18;;;;;;;58.87;29.13;;;;;;;-1.90;87.95;101976.66;3535322;82;33309;-80
2021/03/03 04:54:20;;;;;;;65.00;31.73;;;;;;;-1.88;87.98;101978.55;3552326;80;98834;-80
2021/03/03 04:59:21;;;;;;;62.73;31.77;;;;;;;-1.86;87.94;101972.39;3529627;83;32677;-80
2021/03/03 05:04:22;;;;;;;64.80;31.40;;;;;;;-1.85;87.81;101969.44;3549175;81;98546;-80
2021/03/03 05:09:23;;;;;;;105.80;47.03;;;;;;;-1.89;87.65;101964.27;3560859;82;33936;-80
2021/03/03 05:14:24;;;;;;;98.23;44.63;;;;;;;-1.89;87.58;101966.14;3542704;81;99296;-80
2021/03/03 05:19:25;;;;;;;121.60;55.40;;;;;;;-1.88;87.63;101967.77;3558214;81;33262;-81
2021/03/03 05:24:26;;;;;;;104.17;46.80;;;;;;;-1.91;87.52;101961.00;3550291;81;99448;-81
2021/03/03 05:29:27;;;;;;;89.03;42.03;;;;;;;-1.91;87.53;101956.95;3555013;82;32969;-80
2021/03/03 05:34:28;;;;;;;96.83;42.03;;;;;;;-1.91;87.80;101952.91;3533825;82;98938;-81
2021/03/03 05:39:30;;;;;;;77.33;35.77;;;;;;;-1.91;87.68;101947.51;3537940;82;32499;-80
2021/03/03 05:44:32;;;;;;;72.05;34.85;;;;;;;-1.92;87.60;101949.94;3511000;82;98814;-81
2021/03/03 05:49:36;;;;;;;66.53;35.20;;;;;;;-1.93;87.85;101938.87;3536784;82;32748;-79
2021/03/03 05:54:37;;;;;;;66.33;33.63;;;;;;;-1.92;87.65;101943.74;3496235;83;100746;-81
2021/03/03 05:59:40;;;;;;;68.27;32.03;;;;;;;-1.93;87.67;101940.74;3486341;83;32679;-80
2021/03/03 06:04:41;;;;;;;61.77;30.47;;;;;;;-1.92;87.69;101935.65;3525264;81;98511;-81
2021/03/03 06:09:42;;;;;;;68.00;31.13;;;;;;;-1.91;87.67;101934.57;3534012;82;32669;-81
2021/03/03 06:14:43;;;;;;;61.30;30.40;;;;;;;-1.92;87.87;101925.66;3550277;80;99182;-81
2021/03/03 06:19:44;;;;;;;61.53;30.20;;;;;;;-1.89;88.16;101932.42;3553925;82;32754;-81
2021/03/03 06:24:45;;;;;;;69.20;29.63;;;;;;;-1.88;87.88;101937.56;3547896;81;98756;-81
2021/03/03 06:30:07;;;;;;;62.63;32.23;;;;;;;-1.89;87.80;101933.24;3492779;83;32545;-81
2021/03/03 06:35:09;;;;;;;62.10;30.13;;;;;;;-1.89;87.93;101929.20;3492004;80;99102;-81
2021/03/03 06:40:10;;;;;;;69.37;33.10;;;;;;;-1.83;88.10;101924.64;3492488;83;32639;-81
2021/03/03 06:45:30;;;;;;;85.25;42.27;;;;;;;-1.77;88.71;101912.28;3490944;81;98770;-81
2021/03/03 06:50:35;;;;;;;84.40;43.97;;;;;;;-1.68;89.54;101906.69;3556635;82;32646;-82
2021/03/03 06:55:50;;;;;;;91.97;43.58;;;;;;;-1.58;89.95;101903.23;3548222;81;98926;-82
2021/03/03 07:00:51;;;;;;;88.03;41.13;;;;;;;-1.44;90.70;101908.42;3496763;83;25914;-80
2021/03/03 07:05:54;;;;;;;89.37;44.70;;;;;;;-1.29;91.94;101901.75;3534029;81;98512;-80
2021/03/03 07:10:55;;;;;;;89.43;43.37;;;;;;;-1.11;92.77;101898.06;3540160;82;32686;-83
2021/03/03 07:16:02;;;;;;;101.57;50.70;;;;;;;-0.90;93.19;101898.41;3528351;81;98808;-83
2021/03/03 07:21:05;;;;;;;;;;;;;;;-0.63;94.14;101902.26;3562703;81;26010;-83
2021/03/03 07:26:06;;;;;;;104.47;51.90;;;;;;;-0.37;95.08;101903.94;3577128;81;85036;-83
2021/03/03 07:31:10;;;;;;;94.27;47.30;;;;;;;-0.17;94.89;101900.17;3616536;80;32655;-83
2021/03/03 07:36:13;;;;;;;108.47;48.83;;;;;;;0.06;95.29;101897.47;3582021;81;98747;-84
2021/03/03 07:41:17;;;;;;;114.83;54.87;;;;;;;0.34;95.88;101891.47;3580078;81;32788;-85
2021/03/03 07:46:19;;;;;;;108.60;53.30;;;;;;;0.59;95.63;101889.52;3593447;81;98839;-85
2021/03/03 07:51:21;;;;;;;113.17;55.77;;;;;;;0.82;95.80;101890.80;3588043;81;32754;-84
2021/03/03 07:56:24;;;;;;;135.60;65.93;;;;;;;1.06;95.77;101888.53;3580758;81;98670;-84
2021/03/03 08:01:27;;;;;;;131.57;59.30;;;;;;;1.29;96.03;101882.43;3595439;81;32716;-84
2021/03/03 08:06:35;;;;;;;129.30;61.37;;;;;;;1.54;96.10;101880.89;3583853;79;98884;-85
2021/03/03 08:11:40;;;;;;;129.27;59.23;;;;;;;1.80;96.23;101875.55;3593545;81;25995;-85
2021/03/03 08:16:53;;;;;;;110.83;57.07;;;;;;;2.08;96.09;101875.33;3583547;81;98763;-85
2021/03/03 08:21:55;;;;;;;103.67;51.43;;;;;;;2.41;96.20;101866.31;3540457;81;32683;-86
2021/03/03 08:26:56;;;;;;;105.67;49.50;;;;;;;2.77;95.84;101859.35;3586613;81;98170;-85
2021/03/03 08:32:21;;;;;;;99.60;47.47;;;;;;;3.17;95.55;101854.20;3593252;81;32684;-86
2021/03/03 08:37:30;;;;;;;108.03;52.05;;;;;;;3.59;94.97;101856.85;3576767;81;98252;-86
2021/03/03 08:42:35;;;;;;;108.23;50.07;;;;;;;4.08;93.91;101865.30;3588530;81;33255;-87
2021/03/03 08:47:56;;;;;;;101.15;50.65;;;;;;;4.58;93.23;101858.91;3581979;80;98745;-86
2021/03/03 08:53:25;;;;;;;101.17;50.80;;;;;;;5.04;92.48;101839.69;3593591;81;32752;-86
2021/03/03 08:58:40;;;;;;;97.77;50.47;;;;;;;5.53;91.58;101829.56;3588405;81;32672;-87
2021/03/03 09:03:42;;;;;;;95.80;50.33;;;;;;;6.05;90.37;101823.92;3582233;81;98729;-87
2021/03/03 09:08:43;;;;;;;110.70;53.40;;;;;;;6.53;88.83;101807.81;3593813;81;33118;-87
2021/03/03 09:13:44;;;;;;;103.10;53.20;;;;;;;7.07;87.61;101814.16;3577339;81;98732;-86
2021/03/03 09:18:45;;;;;;;91.70;51.07;;;;;;;7.71;87.69;101806.36;3589902;81;33182;-86
2021/03/03 09:23:46;;;;;;;94.05;48.65;;;;;;;8.41;86.16;101808.03;3587519;79;98546;-87
2021/03/03 09:28:47;;;;;;;75.47;40.70;;;;;;;9.12;83.97;101803.45;3590951;81;32785;-87
2021/03/03 09:33:48;;;;;;;71.40;36.30;;;;;;;9.73;81.15;101802.06;3581360;81;98881;-86
2021/03/03 09:38:56;;;;;;;70.40;38.10;;;;;;;10.34;81.28;101794.78;3589101;81;32677;-86
2021/03/03 09:44:05;;;;;;;79.97;41.63;;;;;;;10.96;76.61;101785.61;3575943;81;98967;-85
2021/03/03 09:49:29;;;;;;;77.53;42.33;;;;;;;11.42;76.01;101776.77;3586162;81;27222;-85
2021/03/03 09:54:35;;;;;;;74.17;41.33;;;;;;;11.93;75.36;101775.30;3607285;80;99087;-86
2021/03/03 09:59:45;;;;;;;77.33;40.30;;;;;;;12.41;70.68;101776.37;3595417;81;25850;-86
2021/03/03 10:04:47;;;;;;;76.30;41.03;;;;;;;12.69;71.53;101767.95;3587466;80;99354;-86
2021/03/03 10:09:53;;;;;;;101.83;53.67;;;;;;;13.13;69.67;101766.06;3594937;81;26318;-85
2021/03/03 10:15:10;;;;;;;65.85;39.55;;;;;;;13.36;66.29;101753.72;3582083;80;98828;-85
2021/03/03 10:20:51;;;;;;;65.12;38.63;;;;;;;13.66;67.29;101749.99;3588586;81;26013;-84
2021/03/03 10:26:05;;;;;;;66.05;38.17;;;;;;;14.11;67.24;101743.12;3560349;79;98965;-87
2021/03/03 10:31:11;;;;;;;58.23;35.40;;;;;;;14.42;61.85;101736.55;3586580;81;27411;-84
2021/03/03 10:36:19;;;;;;;52.50;28.67;;;;;;;14.44;61.19;101725.92;3562382;81;99028;-85
2021/03/03 10:41:27;;;;;;;49.60;28.80;;;;;;;14.75;61.25;101720.05;3544795;82;28372;-86
2021/03/03 10:46:29;;;;;;;42.50;25.13;;;;;;;15.01;59.93;101719.45;3539802;81;98640;-85
2021/03/03 10:51:38;;;;;;;49.07;29.37;;;;;;;15.11;58.24;101715.22;3545684;82;26375;-86
2021/03/03 10:56:44;;;;;;;45.08;30.30;;;;;;;15.22;57.68;101700.31;3540713;82;98652;-86
2021/03/03 11:01:52;;;;;;;46.77;28.07;;;;;;;15.29;56.99;101697.63;3543517;82;26657;-86
2021/03/03 11:06:52;;;;;;;48.33;27.37;;;;;;;15.42;55.87;101691.27;3543941;81;99151;-87
2021/03/03 11:11:57;;;;;;;38.20;22.87;;;;;;;15.44;55.49;101681.39;3541770;82;27289;-86
2021/03/03 11:17:00;;;;;;;42.67;25.17;;;;;;;15.08;53.31;101648.02;3536901;82;98624;-86
2021/03/03 11:22:02;;;;;;;42.00;24.07;;;;;;;15.08;53.31;101648.02;3565172;81;28251;-88
2021/03/03 11:27:04;;;;;;;40.57;23.63;;;;;;;15.12;51.41;101653.02;3597995;81;98597;-87
2021/03/03 11:32:07;;;;;;;41.50;23.10;;;;;;;15.05;53.55;101653.73;3598824;81;28508;-87
2021/03/03 11:37:08;;;;;;;43.37;23.70;;;;;;;15.01;52.86;101646.55;3596000;81;101677;-86
2021/03/03 11:42:09;;;;;;;40.00;23.23;;;;;;;14.82;51.63;101639.78;3598914;80;27326;-83
2021/03/03 11:47:11;;;;;;;39.87;22.00;;;;;;;14.63;51.61;101635.18;3603558;79;98515;-86
2021/03/03 11:52:12;;;;;;;39.00;23.33;;;;;;;14.56;52.49;101625.36;3603255;81;25893;-86
2021/03/03 11:57:13;;;;;;;39.10;22.53;;;;;;;14.45;52.39;101608.39;3592212;79;98804;-89
2021/03/03 12:02:13;;;;;;;36.97;21.50;;;;;;;14.42;52.59;101603.59;3622723;80;26358;-86
2021/03/03 12:07:15;;;;;;;37.13;21.43;;;;;;;14.40;52.82;101594.87;3615373;80;98692;-86
2021/03/03 12:12:16;;;;;;;42.83;21.93;;;;;;;14.29;51.48;101585.00;3562403;81;32676;-87
2021/03/03 12:17:17;;;;;;;41.93;21.93;;;;;;;14.24;51.74;101587.31;3596237;79;98834;-85
2021/03/03 12:22:18;;;;;;;41.33;24.17;;;;;;;14.14;52.21;101567.97;3622134;80;32712;-84
2021/03/03 12:27:19;;;;;;;43.97;25.93;;;;;;;14.06;53.46;101559.93;3583303;79;98651;-86
2021/03/03 12:32:20;;;;;;;46.30;25.83;;;;;;;14.04;53.43;101550.61;3591910;81;33709;-87
2021/03/03 12:37:21;;;;;;;43.90;25.77;;;;;;;14.01;53.53;101536.72;3561403;81;98972;-86
2021/03/03 12:42:22;;;;;;;50.67;27.60;;;;;;;13.96;54.03;101522.59;3593302;81;28321;-89
2021/03/03 12:47:23;;;;;;;46.27;26.03;;;;;;;13.86;52.80;101518.30;3578320;81;99132;-87
2021/03/03 12:52:25;;;;;;;51.43;26.63;;;;;;;13.86;52.80;101518.30;3590472;81;26481;-86
2021/03/03 12:57:26;;;;;;;49.05;25.15;;;;;;;13.84;53.63;101506.81;3581649;79;98794;-87
2021/03/03 13:02:27;;;;;;;46.77;27.33;;;;;;;13.82;53.50;101496.69;3592600;81;26377;-87
2021/03/03 13:07:28;;;;;;;50.50;27.97;;;;;;;13.82;54.46;101493.34;3580578;81;98811;-85
2021/03/03 13:12:29;;;;;;;46.50;25.80;;;;;;;13.80;54.32;101482.44;3595085;81;26061;-87
2021/03/03 13:17:30;;;;;;;44.43;24.47;;;;;;;13.82;55.09;101477.31;3588018;81;98620;-87
2021/03/03 13:22:31;;;;;;;44.83;24.27;;;;;;;13.83;54.26;101460.34;3617731;80;26334;-85
2021/03/03 13:27:33;;;;;;;41.57;23.43;;;;;;;13.81;53.65;101455.78;3593378;81;98597;-87
2021/03/03 13:32:34;;;;;;;40.73;23.70;;;;;;;13.80;53.86;101446.46;3592891;81;25869;-86
2021/03/03 13:37:36;;;;;;;46.73;24.63;;;;;;;13.83;53.08;101442.36;3591735;81;98715;-83
2021/03/03 13:42:39;;;;;;;51.07;24.60;;;;;;;13.86;52.42;101449.11;3595690;81;27068;-85
2021/03/03 13:47:40;;;;;;;43.70;23.20;;;;;;;13.84;53.91;101438.41;3577805;81;98342;-87
2021/03/03 13:52:41;;;;;;;37.80;21.27;;;;;;;13.83;54.16;101427.71;3597344;81;26179;-85
2021/03/03 13:57:43;;;;;;;38.97;21.97;;;;;;;13.83;52.16;101418.02;3591051;81;98678;-87
2021/03/03 14:02:44;;;;;;;40.03;22.13;;;;;;;13.79;51.87;101403.37;3596916;81;25959;-86
2021/03/03 14:07:45;;;;;;;44.27;23.40;;;;;;;13.78;53.04;101396.22;3590086;81;98799;-85
2021/03/03 14:12:46;;;;;;;40.27;24.03;;;;;;;13.81;52.50;101385.22;3604123;81;26184;-86
2021/03/03 14:17:47;;;;;;;45.07;23.00;;;;;;;13.79;53.33;101382.02;3579076;81;98956;-86
2021/03/03 14:22:48;;;;;;;43.43;23.00;;;;;;;13.79;53.79;101361.86;3584436;81;26078;-88
2021/03/03 14:27:49;;;;;;;40.20;22.37;;;;;;;13.78;52.42;101354.14;3583498;79;98929;-85
2021/03/03 14:32:50;;;;;;;42.53;22.90;;;;;;;13.76;52.97;101344.62;3583621;81;26184;-85
2021/03/03 14:37:52;;;;;;;36.97;21.10;;;;;;;13.72;53.26;101335.47;3577040;79;98856;-85
2021/03/03 14:42:53;;;;;;;40.83;22.57;;;;;;;13.72;53.71;101324.40;3585383;81;26101;-85
2021/03/03 14:47:54;;;;;;;37.07;20.40;;;;;;;13.67;53.47;101317.81;3580131;79;98679;-84
2021/03/03 14:52:55;;;;;;;39.13;21.70;;;;;;;13.62;53.72;101309.88;3588354;81;26495;-83
2021/03/03 14:57:56;;;;;;;37.13;20.93;;;;;;;13.56;53.64;101305.81;3580909;81;99054;-86
2021/03/03 15:02:57;;;;;;;35.25;19.90;;;;;;;13.51;53.41;101301.42;3589055;81;26821;-84
2021/03/03 15:07:58;;;;;;;34.37;20.63;;;;;;;13.47;53.54;101293.66;3592775;81;98473;-85
2021/03/03 15:12:59;;;;;;;40.63;21.90;;;;;;;13.42;53.36;101293.20;3601284;81;34074;-85
2021/03/03 15:18:00;;;;;;;36.07;19.40;;;;;;;13.38;52.75;101283.48;3581785;81;98790;-85
2021/03/03 15:23:01;;;;;;;39.70;20.40;;;;;;;13.33;52.94;101267.22;3590879;81;34083;-87
2021/03/03 15:28:03;;;;;;;36.60;19.50;;;;;;;13.29;52.36;101273.28;3586161;80;98702;-86
2021/03/03 15:33:05;;;;;;;36.93;19.87;;;;;;;13.19;52.96;101260.11;3622275;80;33343;-84
2021/03/03 15:38:06;;;;;;;38.83;20.50;;;;;;;13.11;52.98;101254.86;3587513;81;98252;-86
2021/03/03 15:43:07;;;;;;;36.40;19.10;;;;;;;13.01;53.52;101242.48;3593602;81;33351;-83
2021/03/03 15:48:09;;;;;;;33.77;18.07;;;;;;;12.91;53.82;101240.94;3575043;81;98644;-84
2021/03/03 15:53:10;;;;;;;38.80;20.47;;;;;;;12.79;54.34;101236.41;3588866;81;33820;-84
2021/03/03 15:58:11;;;;;;;41.20;21.10;;;;;;;12.67;54.07;101219.25;3579324;80;98591;-85
2021/03/03 16:03:13;;;;;;;36.27;20.70;;;;;;;12.55;54.53;101216.70;3619240;80;98706;-85
2021/03/03 16:08:14;;;;;;;39.20;21.07;;;;;;;12.43;54.90;101210.79;3546037;81;33679;-85
2021/03/03 16:13:14;;;;;;;38.90;20.53;;;;;;;12.30;55.34;101201.70;3583463;80;98852;-84
2021/03/03 16:18:15;;;;;;;39.20;20.57;;;;;;;12.16;55.53;101200.09;3591199;80;33257;-85
2021/03/03 16:23:17;;;;;;;39.73;19.63;;;;;;;12.00;55.70;101197.44;3602366;79;99041;-84
2021/03/03 16:28:17;;;;;;;41.67;21.33;;;;;;;11.85;56.62;101191.48;3620420;80;33323;-86
2021/03/03 16:33:19;;;;;;;45.43;22.33;;;;;;;11.68;57.54;101193.91;3518514;81;99271;-85
2021/03/03 16:38:32;;;;;;;46.97;25.40;;;;;;;11.48;57.95;101177.14;3552549;81;33428;-85
2021/03/03 16:43:33;;;;;;;55.87;31.83;;;;;;;11.29;58.04;101175.80;3564431;81;98732;-85
2021/03/03 16:49:29;;;;;;;50.70;26.77;;;;;;;11.11;58.18;101172.67;3614615;80;33359;-86
2021/03/03 16:55:30;;;;;;;56.07;27.30;;;;;;;10.95;59.14;101178.82;3585506;79;99052;-86
2021/03/03 17:01:25;;;;;;;47.60;23.90;;;;;;;10.59;59.82;101172.33;3578695;81;33287;-87
2021/03/03 17:07:21;;;;;;;49.83;25.17;;;;;;;10.32;60.13;101176.02;3612574;80;98684;-87
2021/03/03 17:13:18;;;;;;;41.00;21.80;;;;;;;10.10;60.58;101168.41;3578192;81;33439;-86
2021/03/03 17:19:16;;;;;;;38.43;20.30;;;;;;;9.91;60.89;101166.09;3618855;80;33316;-85
2021/03/03 17:24:54;;;;;;;;;;;;;;;9.69;61.37;101157.08;3482359;83;98917;-85
2021/03/03 17:30:51;;;;;;;66.55;30.70;;;;;;;9.51;62.14;101155.25;3482953;83;25953;-86
2021/03/03 17:36:48;;;;;;;47.90;25.37;;;;;;;9.31;62.28;101138.41;3482495;82;98765;-85
2021/03/03 17:42:44;;;;;;;42.33;21.77;;;;;;;9.16;63.08;101143.28;3486721;83;26002;-84
2021/03/03 17:48:41;;;;;;;32.10;17.37;;;;;;;8.98;63.38;101131.56;3474739;84;98607;-87
2021/03/03 17:54:38;;;;;;;40.92;21.12;;;;;;;8.82;63.99;101132.08;3473151;83;98807;-87
2021/03/03 18:00:34;;;;;;;73.57;33.80;;;;;;;8.63;64.53;101129.17;3483232;83;33310;-87
2021/03/03 18:06:31;;;;;;;67.57;34.37;;;;;;;8.46;64.81;101122.59;3470712;83;98767;-87
2021/03/03 18:11:33;;;;;;;55.30;28.10;;;;;;;8.34;64.79;101121.23;3479506;83;26043;-87
2021/03/03 18:16:34;;;;;;;38.73;20.67;;;;;;;8.06;65.11;101091.51;3477427;83;98523;-86
2021/03/03 18:21:35;;;;;;;37.97;17.13;;;;;;;8.08;65.08;101111.17;3470850;83;34536;-88
2021/03/03 18:26:36;;;;;;;31.63;16.07;;;;;;;8.04;65.14;101103.40;3430268;84;98956;-88
2021/03/03 18:31:37;;;;;;;35.67;16.30;;;;;;;8.02;65.17;101100.99;3459512;84;33380;-88
2021/03/03 18:36:38;;;;;;;31.30;14.20;;;;;;;8.02;65.25;101100.22;3450473;82;98386;-88
2021/03/03 18:41:40;;;;;;;32.37;15.57;;;;;;;7.99;65.32;101094.03;3452278;84;33283;-88
2021/03/03 18:46:45;;;;;;;31.87;15.43;;;;;;;7.96;65.39;101094.15;3452753;84;98515;-88
2021/03/03 18:51:48;;;;;;;34.33;16.93;;;;;;;7.96;65.48;101087.89;3455804;84;33396;-88
2021/03/03 18:56:49;;;;;;;35.63;17.50;;;;;;;7.98;65.63;101082.84;3452343;83;98592;-86
2021/03/03 19:01:50;;;;;;;38.90;17.57;;;;;;;7.94;65.77;101073.15;3449396;84;33320;-87
2021/03/03 19:06:51;;;;;;;37.50;18.73;;;;;;;7.92;65.86;101067.19;3389790;85;98570;-87
2021/03/03 19:11:53;;;;;;;34.60;17.03;;;;;;;7.88;66.06;101073.16;3436948;84;33387;-88
2021/03/03 19:16:54;;;;;;;38.17;16.97;;;;;;;7.82;66.30;101064.94;3455378;83;98610;-87
2021/03/03 19:21:55;;;;;;;36.60;16.13;;;;;;;7.77;66.47;101058.88;3479546;83;33554;-86
2021/03/03 19:26:56;;;;;;;41.03;17.33;;;;;;;7.72;66.69;101051.69;3472806;83;98619;-86
2021/03/03 19:31:57;;;;;;;41.23;18.47;;;;;;;7.69;66.96;101048.84;3483446;83;33749;-87
2021/03/03 19:37:00;;;;;;;42.33;20.17;;;;;;;7.68;67.09;101046.66;3471344;83;98791;-85
2021/03/03 19:42:01;;;;;;;40.07;17.63;;;;;;;7.68;67.14;101043.92;3480969;83;33804;-86
2021/03/03 19:47:02;;;;;;;37.80;16.73;;;;;;;7.67;67.28;101030.00;3485923;83;98769;-85
2021/03/03 19:52:04;;;;;;;38.53;17.60;;;;;;;7.59;67.40;101026.79;3481209;83;33311;-87
2021/03/03 19:57:06;;;;;;;41.67;18.73;;;;;;;7.46;67.63;101022.45;3476016;83;98669;-87
2021/03/03 20:02:08;;;;;;;41.80;16.97;;;;;;;7.39;67.95;101022.23;3483513;83;33378;-85
2021/03/03 20:07:09;;;;;;;53.73;21.13;;;;;;;7.39;68.26;101020.86;3486534;83;98596;-87
2021/03/03 20:12:12;;;;;;;46.37;20.07;;;;;;;7.31;68.41;101010.02;3481141;83;33337;-87
2021/03/03 20:17:13;;;;;;;35.43;16.93;;;;;;;7.27;68.56;101005.80;3460477;83;98171;-87
2021/03/03 20:22:15;;;;;;;39.80;17.03;;;;;;;7.23;68.81;101010.35;3478181;83;33329;-87
2021/03/03 20:27:16;;;;;;;36.23;17.97;;;;;;;7.19;69.35;101003.17;3449827;84;98422;-88
2021/03/03 20:32:17;;;;;;;37.63;17.40;;;;;;;7.16;69.36;100999.73;3435621;84;33339;-86
2021/03/03 20:37:18;;;;;;;40.00;18.23;;;;;;;7.12;69.63;100999.61;3430130;84;98070;-86
2021/03/03 20:42:19;;;;;;;42.43;19.33;;;;;;;7.12;69.89;100989.22;3435717;84;33323;-85
2021/03/03 20:47:20;;;;;;;39.77;18.13;;;;;;;7.10;70.11;100984.08;3450422;84;98332;-85
2021/03/03 20:52:21;;;;;;;39.27;18.07;;;;;;;7.08;70.39;100980.89;3452560;84;33788;-87
2021/03/03 20:57:22;;;;;;;32.53;16.70;;;;;;;7.06;70.45;100980.45;3448298;84;98651;-87
2021/03/03 21:02:23;;;;;;;34.73;16.20;;;;;;;7.05;70.63;100970.64;3456829;84;33879;-88
2021/03/03 21:07:24;;;;;;;37.30;17.43;;;;;;;7.05;70.85;100968.47;3430731;84;98739;-85
2021/03/03 21:12:26;;;;;;;39.80;18.43;;;;;;;7.01;71.22;100965.61;3455758;84;32197;-84
2021/03/03 21:17:27;;;;;;;38.70;18.57;;;;;;;6.95;71.34;100966.98;3430431;84;98457;-84
2021/03/03 21:22:29;;;;;;;36.33;17.57;;;;;;;6.91;71.68;100959.20;3435734;84;33316;-84
2021/03/03 21:27:30;;;;;;;34.17;17.90;;;;;;;6.85;71.75;100946.08;3435197;84;98479;-84
2021/03/03 21:32:31;;;;;;;37.07;18.47;;;;;;;6.78;72.01;100934.91;3484701;83;31807;-84
2021/03/03 21:37:32;;;;;;;39.93;18.90;;;;;;;6.68;72.21;100936.70;3443031;84;98502;-84
2021/03/03 21:42:35;;;;;;;32.43;17.20;;;;;;;6.63;72.66;100923.23;3445559;84;32507;-84
2021/03/03 21:47:36;;;;;;;30.62;15.83;;;;;;;6.61;72.87;100909.89;3420862;84;98719;-84
2021/03/03 21:52:37;;;;;;;32.90;15.13;;;;;;;6.57;73.38;100904.89;3453051;84;33783;-84
2021/03/03 21:57:38;;;;;;;33.57;15.13;;;;;;;6.58;73.47;100905.67;3466745;84;98525;-85
2021/03/03 22:02:39;;;;;;;36.73;16.60;;;;;;;6.56;73.57;100885.53;3468218;84;33464;-84
2021/03/03 22:07:40;;;;;;;33.03;16.77;;;;;;;6.59;73.79;100881.29;3462905;84;98396;-85
2021/03/03 22:12:41;;;;;;;36.10;17.26;;;;;;;6.56;73.79;100873.22;3448980;84;31479;-86
2021/03/03 22:17:42;;;;;;;35.73;17.75;;;;;;;6.54;74.17;100862.39;3513277;82;98171;-83
2021/03/03 22:22:43;;;;;;;34.90;16.30;;;;;;;6.57;74.33;100860.33;3523107;82;31751;-84
2021/03/03 22:27:44;;;;;;;36.33;16.87;;;;;;;6.58;74.42;100853.16;3471812;83;98684;-84
2021/03/03 22:32:45;;;;;;;34.90;17.73;;;;;;;6.61;74.42;100849.73;3471008;83;31780;-84
2021/03/03 22:37:46;;;;;;;40.70;19.03;;;;;;;6.63;74.64;100843.37;3475772;83;98709;-84
2021/03/03 22:42:47;;;;;;;38.77;18.03;;;;;;;6.69;74.60;100826.96;3477308;83;31768;-84
2021/03/03 22:47:49;;;;;;;34.50;15.93;;;;;;;6.72;74.71;100822.16;3471464;83;98600;-84
2021/03/03 22:52:50;;;;;;;38.70;19.20;;;;;;;6.82;74.91;100810.77;3491776;83;31114;-84
2021/03/03 22:57:51;;;;;;;39.50;17.93;;;;;;;6.86;74.85;100800.74;3490385;83;98434;-85
2021/03/03 23:02:52;;;;;;;35.67;17.13;;;;;;;6.93;74.87;100801.55;3485210;83;30146;-84
2021/03/03 23:07:53;;;;;;;32.30;16.27;;;;;;;6.99;74.66;100795.48;3483664;83;98460;-85
2021/03/03 23:12:54;;;;;;;33.17;16.73;;;;;;;7.06;74.55;100787.51;3488316;83;31958;-85